createdAt,value
2023-04-18T00:01:28.975Z,70.87
2023-04-18T00:04:34.228Z,71.60
2023-04-18T00:07:36.888Z,71.86
2023-04-18T00:10:39.298Z,71.66
2023-04-18T00:13:41.931Z,71.46
2023-04-18T00:16:44.483Z,71.50
2023-04-18T00:19:47.216Z,71.01
2023-04-18T00:22:49.894Z,70.87
2023-04-18T00:25:52.450Z,70.94
2023-04-18T00:28:55.356Z,70.98
2023-04-18T00:31:58.101Z,70.57
2023-04-18T00:35:00.638Z,71.42
2023-04-18T00:38:03.286Z,71.28
2023-04-18T00:41:05.759Z,71.26
2023-04-18T00:44:08.447Z,71.49
2023-04-18T00:47:11.110Z,71.57
2023-04-18T00:50:13.553Z,71.97
2023-04-18T00:53:17.035Z,71.14
2023-04-18T00:56:20.448Z,72.21
2023-04-18T00:59:23.005Z,72.47
2023-04-18T01:02:26.435Z,71.97
2023-04-18T01:05:29.086Z,72.19
2023-04-18T01:08:32.988Z,72.24
2023-04-18T01:11:36.360Z,73.24
2023-04-18T01:14:42.851Z,73.33
2023-04-18T01:17:45.688Z,73.88
2023-04-18T01:20:52.087Z,73.92
2023-04-18T01:23:56.074Z,73.72
2023-04-18T01:26:58.888Z,73.93
2023-04-18T01:30:02.384Z,74.06
2023-04-18T01:33:05.965Z,73.59
2023-04-18T01:36:08.750Z,73.34
2023-04-18T01:39:11.249Z,73.80
2023-04-18T01:42:13.736Z,74.09
2023-04-18T01:45:16.624Z,73.76
2023-04-18T01:48:19.252Z,73.39
2023-04-18T01:51:21.784Z,73.29
2023-04-18T01:54:24.334Z,73.36
2023-04-18T01:57:28.969Z,73.78
2023-04-18T02:00:31.494Z,73.33
2023-04-18T02:03:34.179Z,72.90
2023-04-18T02:06:37.039Z,73.08
2023-04-18T02:09:39.636Z,72.16
2023-04-18T02:12:42.171Z,71.97
2023-04-18T02:15:46.170Z,71.64
2023-04-18T02:18:52.959Z,71.20
2023-04-18T02:21:55.613Z,71.23
2023-04-18T02:24:58.089Z,71.25
2023-04-18T02:28:03.337Z,71.54
2023-04-18T02:31:07.444Z,72.30
2023-04-18T02:34:10.919Z,71.50
2023-04-18T02:37:13.403Z,72.12
2023-04-18T02:40:16.089Z,73.54
2023-04-18T02:43:18.576Z,74.04
2023-04-18T02:46:21.404Z,74.97
2023-04-18T02:49:24.912Z,75.49
2023-04-18T02:52:28.256Z,75.94
2023-04-18T02:55:30.709Z,74.54
2023-04-18T02:58:36.473Z,75.29
2023-04-18T03:02:06.535Z,75.74
2023-04-18T03:05:10.746Z,75.71
2023-04-18T03:08:14.345Z,75.99
2023-04-18T03:11:17.427Z,76.16
2023-04-18T03:14:20.632Z,75.91
2023-04-18T03:17:29.633Z,76.19
2023-04-18T03:20:33.281Z,76.11
2023-04-18T03:23:35.950Z,75.70
2023-04-18T03:26:40.312Z,76.71
2023-04-18T03:29:43.674Z,75.74
2023-04-18T03:32:49.163Z,76.05
2023-04-18T03:35:51.783Z,75.87
2023-04-18T03:38:55.010Z,75.40
2023-04-18T03:41:57.695Z,75.53
2023-04-18T03:45:00.364Z,75.74
2023-04-18T03:48:03.645Z,75.77
2023-04-18T03:51:10.901Z,75.87
2023-04-18T03:54:15.803Z,75.53
2023-04-18T03:57:18.526Z,75.75
2023-04-18T04:00:21.315Z,75.22
2023-04-18T04:03:34.338Z,74.94
2023-04-18T04:06:37.313Z,75.76
2023-04-18T04:09:39.953Z,75.40
2023-04-18T04:12:42.617Z,75.90
2023-04-18T04:15:45.731Z,75.28
2023-04-18T04:18:48.561Z,74.67
2023-04-18T04:21:51.449Z,74.34
2023-04-18T04:24:57.878Z,74.45
2023-04-18T04:28:08.387Z,75.52
2023-04-18T04:31:22.413Z,74.85
2023-04-18T04:34:26.009Z,75.26
2023-04-18T04:37:28.570Z,75.61
2023-04-18T04:40:43.540Z,77.07
2023-04-18T04:43:48.382Z,76.93
2023-04-18T04:46:54.597Z,77.98
2023-04-18T04:50:01.396Z,77.07
2023-04-18T04:53:04.669Z,77.23
2023-04-18T04:56:07.425Z,78.04
2023-04-18T04:59:10.249Z,77.04
2023-04-18T05:02:16.884Z,76.35
2023-04-18T05:05:19.820Z,76.70
2023-04-18T05:08:22.514Z,77.42
2023-04-18T05:11:25.117Z,77.16
2023-04-18T05:14:27.856Z,77.50
2023-04-18T05:17:30.552Z,77.06
2023-04-18T05:20:33.202Z,77.78
2023-04-18T05:23:37.334Z,77.55
2023-04-18T05:26:40.335Z,77.67
2023-04-18T05:29:43.320Z,77.03
2023-04-18T05:32:45.957Z,77.81
2023-04-18T05:35:48.835Z,77.08
2023-04-18T05:38:51.769Z,75.60
2023-04-18T05:41:54.311Z,75.75
2023-04-18T05:44:57.046Z,75.10
2023-04-18T05:47:59.784Z,74.15
2023-04-18T05:51:02.440Z,73.50
2023-04-18T05:54:04.995Z,74.12
2023-04-18T05:57:07.565Z,73.84
2023-04-18T06:00:12.010Z,73.67
2023-04-18T06:03:17.592Z,72.72
2023-04-18T06:06:20.802Z,72.66
2023-04-18T06:09:23.739Z,71.58
2023-04-18T06:12:26.386Z,72.14
2023-04-18T06:15:29.200Z,70.86
2023-04-18T06:18:31.619Z,70.54
2023-04-18T06:21:34.192Z,70.61
2023-04-18T06:24:37.506Z,68.81
2023-04-18T06:27:40.303Z,69.21
2023-04-18T06:30:42.783Z,68.72
2023-04-18T06:33:45.250Z,68.27
2023-04-18T06:36:47.776Z,68.46
2023-04-18T06:39:50.436Z,68.36
2023-04-18T06:42:53.134Z,68.40
2023-04-18T06:45:56.902Z,67.99
2023-04-18T06:48:59.833Z,67.29
2023-04-18T06:52:02.561Z,67.35
2023-04-18T06:55:05.899Z,66.13
2023-04-18T06:58:10.199Z,66.70
2023-04-18T07:01:12.678Z,65.18
2023-04-18T07:04:15.892Z,66.64
2023-04-18T07:07:18.768Z,64.83
2023-04-18T07:10:21.775Z,66.25
2023-04-18T07:13:24.375Z,63.97
2023-04-18T07:16:26.851Z,61.68
2023-04-18T07:19:29.316Z,59.64
2023-04-18T07:22:31.926Z,59.60
2023-04-18T07:25:34.459Z,58.66
2023-04-18T07:28:37.366Z,58.42
2023-04-18T07:31:40.256Z,58.06
2023-04-18T07:34:44.055Z,56.89
2023-04-18T07:37:46.616Z,57.58
2023-04-18T07:40:56.908Z,55.88
2023-04-18T07:44:00.521Z,56.74
2023-04-18T07:47:03.704Z,57.00
2023-04-18T07:50:06.735Z,56.48
2023-04-18T07:53:09.323Z,57.34
2023-04-18T07:56:15.558Z,56.62
2023-04-18T07:59:18.641Z,55.70
2023-04-18T08:02:22.078Z,53.53
2023-04-18T08:05:25.209Z,54.05
2023-04-18T08:08:28.027Z,51.39
2023-04-18T08:11:30.710Z,49.41
2023-04-18T08:14:33.115Z,50.18
2023-04-18T08:17:36.309Z,50.32
2023-04-18T08:20:38.879Z,50.65
2023-04-18T08:23:41.652Z,49.46
2023-04-18T08:26:44.136Z,49.86
2023-04-18T08:29:46.612Z,47.80
2023-04-18T08:32:49.836Z,47.82
2023-04-18T08:35:53.052Z,48.03
2023-04-18T08:38:56.677Z,48.68
2023-04-18T08:42:00.622Z,46.67
2023-04-18T08:45:05.822Z,48.09
2023-04-18T08:48:13.342Z,45.45
2023-04-18T08:51:15.808Z,44.13
2023-04-18T08:54:19.295Z,42.91
2023-04-18T08:57:23.878Z,42.14
2023-04-18T09:00:27.601Z,43.08
2023-04-18T09:03:42.609Z,42.86
2023-04-18T09:06:55.315Z,41.46
2023-04-18T09:09:57.933Z,42.61
2023-04-18T09:13:03.456Z,40.36
2023-04-18T09:16:06.823Z,39.87
2023-04-18T09:19:14.144Z,39.94
2023-04-18T09:22:17.968Z,41.21
2023-04-18T09:25:53.539Z,40.14
2023-04-18T09:28:56.093Z,40.35
2023-04-18T09:32:02.519Z,39.67
2023-04-18T09:35:05.626Z,38.82
2023-04-18T09:38:08.412Z,38.75
2023-04-18T09:41:11.721Z,35.85
2023-04-18T09:44:17.307Z,36.77
2023-04-18T09:47:23.653Z,33.10
2023-04-18T09:50:26.364Z,33.40
2023-04-18T09:53:29.540Z,32.69
2023-04-18T09:56:32.676Z,33.78
2023-04-18T10:00:08.707Z,34.32
2023-04-18T10:03:12.616Z,33.80
2023-04-18T10:06:16.781Z,34.46
2023-04-18T10:09:19.682Z,34.18
2023-04-18T10:12:22.449Z,34.40
2023-04-18T10:15:26.736Z,34.66
2023-04-18T10:18:29.861Z,34.32
2023-04-18T10:21:32.740Z,35.54
2023-04-18T10:24:48.420Z,32.74
2023-04-18T10:27:58.617Z,32.97
2023-04-18T10:31:06.005Z,32.47
2023-04-18T10:34:08.646Z,33.92
2023-04-18T10:37:13.071Z,31.28
2023-04-18T10:40:15.855Z,32.87
2023-04-18T10:43:18.396Z,32.67
2023-04-18T10:46:31.715Z,32.51
2023-04-18T10:49:39.500Z,32.88
2023-04-18T10:52:42.899Z,33.63
2023-04-18T10:55:45.909Z,31.08
2023-04-18T10:58:54.295Z,33.76
2023-04-18T11:02:20.006Z,32.92
2023-04-18T11:05:25.835Z,31.48
2023-04-18T11:08:28.483Z,28.78
2023-04-18T11:11:31.657Z,28.70
2023-04-18T11:14:45.170Z,26.85
2023-04-18T11:18:09.337Z,28.33
2023-04-18T11:21:12.534Z,29.37
2023-04-18T11:24:25.874Z,31.26
2023-04-18T11:27:30.040Z,29.04
2023-04-18T11:30:39.249Z,29.43
2023-04-18T11:33:42.051Z,29.40
2023-04-18T11:36:44.484Z,31.06
2023-04-18T11:39:47.089Z,26.75
2023-04-18T11:42:49.769Z,26.98
2023-04-18T11:45:56.329Z,23.25
2023-04-18T11:48:58.970Z,25.16
2023-04-18T11:52:04.110Z,21.00
2023-04-18T11:55:24.050Z,22.33
2023-04-18T11:58:36.548Z,22.29
2023-04-18T12:01:39.151Z,24.13
2023-04-18T12:04:57.756Z,25.65
2023-04-18T12:08:10.232Z,23.73
2023-04-18T12:11:12.666Z,21.64
2023-04-18T12:14:24.027Z,22.90
2023-04-18T12:32:52.354Z,21.88
2023-04-18T12:36:08.755Z,20.01
2023-04-18T12:39:12.671Z,20.15
2023-04-18T12:42:47.601Z,21.05
2023-04-18T12:46:30.415Z,17.72
2023-04-18T12:54:58.695Z,16.66
2023-04-18T12:58:22.648Z,17.38
2023-04-18T13:02:43.839Z,17.03
2023-04-18T13:30:48.993Z,18.32
2023-04-18T13:33:51.832Z,18.47
2023-04-18T13:36:54.341Z,17.70
2023-04-18T13:39:57.748Z,18.55
2023-04-18T13:43:02.223Z,17.36
2023-04-18T13:46:05.273Z,17.04
2023-04-18T13:49:07.982Z,17.50
2023-04-18T13:52:10.740Z,16.70
2023-04-18T13:55:13.200Z,17.55
2023-04-18T13:58:16.983Z,16.32
2023-04-18T14:01:22.277Z,16.24
2023-04-18T14:04:25.147Z,15.85
2023-04-18T14:07:28.657Z,16.92
2023-04-18T14:10:34.651Z,15.33
2023-04-18T14:13:37.290Z,15.83
2023-04-18T14:16:40.239Z,17.58
2023-04-18T14:19:43.009Z,18.33
2023-04-18T14:22:53.225Z,18.25
2023-04-18T14:25:56.784Z,17.42
2023-04-18T14:28:59.302Z,17.18
2023-04-18T14:32:02.031Z,18.50
2023-04-18T14:35:08.102Z,19.76
2023-04-18T14:38:12.028Z,19.69
2023-04-18T14:41:14.883Z,19.85
2023-04-18T14:44:17.551Z,17.92
2023-04-18T14:47:20.242Z,19.83
2023-04-18T14:50:24.071Z,19.79
2023-04-18T14:53:27.231Z,19.47
2023-04-18T14:56:33.266Z,20.67
2023-04-18T14:59:36.911Z,20.18
2023-04-18T15:02:42.605Z,22.37
2023-04-18T15:05:50.873Z,22.09
2023-04-18T15:08:53.882Z,21.24
2023-04-18T15:11:58.263Z,20.76
2023-04-18T15:15:01.159Z,21.61
2023-04-18T15:18:04.338Z,21.57
2023-04-18T15:21:06.849Z,22.06
2023-04-18T15:24:09.308Z,22.59
2023-04-18T15:27:11.940Z,22.11
2023-04-18T15:30:14.770Z,23.23
2023-04-18T15:33:19.126Z,23.11
2023-04-18T15:36:21.975Z,23.98
2023-04-18T15:39:24.690Z,24.75
2023-04-18T15:42:28.212Z,24.50
2023-04-18T15:45:31.073Z,24.02
2023-04-18T15:53:16.341Z,24.77
2023-04-18T16:07:12.936Z,26.17
2023-04-18T16:10:15.952Z,27.33
2023-04-18T16:13:58.181Z,28.18
2023-04-18T16:32:12.079Z,29.26
2023-04-18T17:33:36.000Z,33.20
2023-04-18T17:36:41.011Z,35.42
2023-04-18T17:39:46.873Z,34.79
2023-04-18T17:42:50.450Z,36.61
2023-04-18T17:45:58.144Z,36.72
2023-04-18T17:49:00.801Z,36.90
2023-04-18T17:52:03.928Z,38.22
2023-04-18T17:55:07.304Z,37.20
2023-04-18T17:58:10.029Z,38.50
2023-04-18T18:01:16.187Z,37.74
2023-04-18T18:04:19.977Z,38.55
2023-04-18T18:07:22.966Z,38.81
2023-04-18T18:10:25.839Z,40.42
2023-04-18T18:13:29.520Z,39.01
2023-04-18T18:16:32.615Z,39.48
2023-04-18T18:19:37.027Z,40.90
2023-04-18T18:22:41.067Z,42.77
2023-04-18T18:25:44.072Z,42.83
2023-04-18T18:28:47.179Z,42.77
2023-04-18T18:31:52.132Z,45.30
2023-04-18T18:34:55.673Z,43.33
2023-04-18T18:37:58.497Z,43.60
2023-04-18T18:41:03.623Z,44.27
2023-04-18T18:44:08.121Z,44.54
2023-04-18T18:47:10.891Z,43.44
2023-04-18T18:50:13.731Z,42.90
2023-04-18T18:53:19.289Z,43.00
2023-04-18T18:56:22.194Z,44.75
2023-04-18T18:59:24.754Z,42.82
2023-04-18T19:02:28.249Z,45.30
2023-04-18T19:05:30.991Z,41.93
2023-04-18T19:08:35.475Z,40.91
2023-04-18T19:11:38.189Z,41.45
2023-04-18T19:14:42.351Z,42.08
2023-04-18T19:17:45.093Z,42.57
2023-04-18T19:20:47.916Z,42.60
2023-04-18T19:23:51.021Z,42.68
2023-04-18T19:26:53.873Z,40.77
2023-04-18T19:29:56.278Z,41.21
2023-04-18T19:33:01.310Z,41.62
2023-04-18T19:36:04.752Z,40.97
2023-04-18T19:39:09.132Z,42.35
2023-04-18T19:42:11.924Z,41.92
2023-04-18T19:45:15.306Z,41.53
2023-04-18T19:48:18.780Z,40.51
2023-04-18T19:51:22.242Z,41.07
2023-04-18T19:54:25.740Z,41.20
2023-04-18T19:57:29.935Z,41.36
2023-04-18T20:00:34.414Z,41.88
2023-04-18T20:03:37.426Z,42.26
2023-04-18T20:06:41.191Z,40.52
2023-04-18T20:09:44.611Z,40.44
2023-04-18T20:12:49.820Z,40.28
2023-04-18T20:15:53.446Z,40.51
2023-04-18T20:18:56.718Z,40.02
2023-04-18T20:21:59.577Z,39.89
2023-04-18T20:25:02.346Z,41.23
2023-04-18T20:28:08.086Z,41.40
2023-04-18T20:31:12.695Z,40.26
2023-04-18T20:34:16.104Z,40.98
2023-04-18T20:37:24.679Z,41.17
2023-04-18T20:40:28.421Z,44.21
2023-04-18T20:43:31.428Z,44.09
2023-04-18T20:46:34.664Z,43.52
2023-04-18T20:49:38.332Z,40.99
2023-04-18T20:52:43.684Z,42.37
2023-04-18T20:55:48.108Z,41.78
2023-04-18T20:58:53.369Z,40.57
2023-04-18T21:01:56.252Z,40.87
2023-04-18T21:04:59.974Z,41.08
2023-04-18T21:08:02.664Z,41.28
2023-04-18T21:11:09.180Z,41.05
2023-04-18T21:14:12.842Z,40.19
2023-04-18T21:17:17.902Z,40.03
2023-04-18T21:20:20.630Z,41.09
2023-04-18T21:23:23.909Z,39.95
2023-04-18T21:26:27.003Z,40.80
2023-04-18T21:29:30.406Z,40.41
2023-04-18T21:32:33.301Z,41.26
2023-04-18T21:35:35.970Z,41.72
2023-04-18T21:38:38.689Z,41.19
2023-04-18T21:41:41.855Z,42.44
2023-04-18T21:44:44.671Z,41.58
2023-04-18T21:47:47.492Z,42.42
2023-04-18T21:50:56.939Z,41.71
2023-04-18T21:53:59.891Z,42.56
2023-04-18T21:57:02.903Z,41.00
2023-04-18T22:00:08.411Z,41.82
2023-04-18T22:03:12.761Z,41.90
2023-04-18T22:06:15.786Z,42.26
2023-04-18T22:09:19.575Z,42.57
2023-04-18T22:12:22.399Z,42.74
2023-04-18T22:15:27.174Z,42.40
2023-04-18T22:18:33.898Z,42.70
2023-04-18T22:21:36.723Z,43.07
2023-04-18T22:24:39.579Z,43.78
2023-04-18T22:27:43.292Z,43.47
2023-04-18T22:30:46.125Z,43.31
2023-04-18T22:33:48.917Z,44.23
2023-04-18T22:36:51.501Z,43.95
2023-04-18T22:39:54.676Z,43.83
2023-04-18T22:42:57.547Z,43.59
2023-04-18T22:46:00.602Z,42.31
2023-04-18T22:49:06.932Z,42.83
2023-04-18T22:52:10.082Z,43.14
2023-04-18T22:55:14.799Z,43.58
2023-04-18T22:58:21.886Z,44.82
2023-04-18T23:01:25.391Z,44.50
2023-04-18T23:04:32.888Z,44.85
2023-04-18T23:07:37.620Z,45.37
2023-04-18T23:10:41.337Z,45.19
2023-04-18T23:13:45.646Z,45.19
2023-04-18T23:16:48.922Z,44.74
2023-04-18T23:19:51.553Z,44.39
2023-04-18T23:22:55.561Z,44.79
2023-04-18T23:25:59.675Z,44.62
2023-04-18T23:29:02.337Z,45.10
2023-04-18T23:32:05.405Z,45.29
2023-04-18T23:35:08.132Z,45.85
2023-04-18T23:38:11.070Z,45.95
2023-04-18T23:41:13.942Z,46.58
2023-04-18T23:44:16.739Z,45.61
2023-04-18T23:47:19.366Z,45.22
2023-04-18T23:50:21.848Z,44.02
2023-04-18T23:53:25.225Z,44.46
2023-04-18T23:56:28.809Z,43.51
2023-04-18T23:59:32.779Z,43.71
